sensor_id;sensor_type;location;lat;lon;timestamp;pressure;altitude;pressure_sealevel;temperature;humidity
24825;BME280;12910;57.690;11.974;2023-02-22T00:00:21;100825.28;;;0.37;100.00
24825;BME280;12910;57.690;11.974;2023-02-22T00:02:49;100825.38;;;0.25;100.00
24825;BME280;12910;57.690;11.974;2023-02-22T00:05:18;100840.34;;;0.22;100.00
24825;BME280;12910;57.690;11.974;2023-02-22T00:07:47;100826.75;;;0.20;100.00
24825;BME280;12910;57.690;11.974;2023-02-22T00:10:17;100829.34;;;0.22;100.00
24825;BME280;12910;57.690;11.974;2023-02-22T00:12:50;100836.16;;;0.23;100.00
24825;BME280;12910;57.690;11.974;2023-02-22T00:15:18;100830.06;;;0.19;100.00
24825;BME280;12910;57.690;11.974;2023-02-22T00:17:44;100828.50;;;0.21;100.00
24825;BME280;12910;57.690;11.974;2023-02-22T00:20:10;100853.72;;;0.21;100.00
24825;BME280;12910;57.690;11.974;2023-02-22T00:22:43;100834.03;;;0.15;100.00
24825;BME280;12910;57.690;11.974;2023-02-22T00:25:15;100835.00;;;0.18;100.00
24825;BME280;12910;57.690;11.974;2023-02-22T00:27:44;100837.31;;;0.14;100.00
24825;BME280;12910;57.690;11.974;2023-02-22T00:30:17;100844.19;;;0.17;100.00
24825;BME280;12910;57.690;11.974;2023-02-22T00:32:47;100840.03;;;0.18;100.00
24825;BME280;12910;57.690;11.974;2023-02-22T00:35:14;100838.19;;;0.15;100.00
24825;BME280;12910;57.690;11.974;2023-02-22T00:37:39;100834.72;;;0.13;100.00
24825;BME280;12910;57.690;11.974;2023-02-22T00:40:10;100842.16;;;0.11;100.00
24825;BME280;12910;57.690;11.974;2023-02-22T00:42:36;100831.91;;;0.08;100.00
24825;BME280;12910;57.690;11.974;2023-02-22T00:45:03;100843.22;;;0.15;100.00
24825;BME280;12910;57.690;11.974;2023-02-22T00:47:29;100844.81;;;0.13;100.00
24825;BME280;12910;57.690;11.974;2023-02-22T00:49:54;100798.47;;;-0.03;100.00
24825;BME280;12910;57.690;11.974;2023-02-22T00:52:20;100819.13;;;0.05;100.00
24825;BME280;12910;57.690;11.974;2023-02-22T00:54:45;100821.34;;;0.14;100.00
24825;BME280;12910;57.690;11.974;2023-02-22T00:57:11;100827.63;;;0.21;100.00
24825;BME280;12910;57.690;11.974;2023-02-22T00:59:36;100825.50;;;0.13;100.00
24825;BME280;12910;57.690;11.974;2023-02-22T01:02:02;100822.69;;;0.09;100.00
24825;BME280;12910;57.690;11.974;2023-02-22T01:04:27;100815.53;;;0.02;100.00
24825;BME280;12910;57.690;11.974;2023-02-22T01:06:53;100821.94;;;-0.04;100.00
24825;BME280;12910;57.690;11.974;2023-02-22T01:09:19;100818.47;;;-0.06;100.00
24825;BME280;12910;57.690;11.974;2023-02-22T01:11:46;100833.09;;;0.00;100.00
24825;BME280;12910;57.690;11.974;2023-02-22T01:14:11;100821.63;;;0.05;100.00
24825;BME280;12910;57.690;11.974;2023-02-22T01:16:37;100816.59;;;0.05;100.00
24825;BME280;12910;57.690;11.974;2023-02-22T01:19:02;100829.28;;;0.07;100.00
24825;BME280;12910;57.690;11.974;2023-02-22T01:21:28;100822.50;;;0.06;100.00
24825;BME280;12910;57.690;11.974;2023-02-22T01:23:53;100822.00;;;0.11;100.00
24825;BME280;12910;57.690;11.974;2023-02-22T01:26:19;100824.53;;;0.11;100.00
24825;BME280;12910;57.690;11.974;2023-02-22T01:28:45;100817.28;;;0.03;100.00
24825;BME280;12910;57.690;11.974;2023-02-22T01:31:10;100810.31;;;-0.02;100.00
24825;BME280;12910;57.690;11.974;2023-02-22T01:33:37;100819.97;;;0.06;100.00
24825;BME280;12910;57.690;11.974;2023-02-22T01:36:03;100808.84;;;0.02;100.00
24825;BME280;12910;57.690;11.974;2023-02-22T01:38:36;100819.19;;;0.07;100.00
24825;BME280;12910;57.690;11.974;2023-02-22T01:41:03;100829.97;;;0.04;100.00
24825;BME280;12910;57.690;11.974;2023-02-22T01:43:31;100813.50;;;-0.04;100.00
24825;BME280;12910;57.690;11.974;2023-02-22T01:45:59;100839.19;;;0.04;100.00
24825;BME280;12910;57.690;11.974;2023-02-22T01:48:31;100833.09;;;0.00;100.00
24825;BME280;12910;57.690;11.974;2023-02-22T01:53:49;100828.91;;;-0.13;100.00
24825;BME280;12910;57.690;11.974;2023-02-22T01:56:17;100821.56;;;-0.10;100.00
24825;BME280;12910;57.690;11.974;2023-02-22T01:58:51;100829.59;;;-0.02;100.00
24825;BME280;12910;57.690;11.974;2023-02-22T02:01:20;100839.56;;;-0.04;100.00
24825;BME280;12910;57.690;11.974;2023-02-22T02:03:47;100825.91;;;-0.07;100.00
24825;BME280;12910;57.690;11.974;2023-02-22T02:06:15;100820.00;;;-0.08;100.00
24825;BME280;12910;57.690;11.974;2023-02-22T02:08:52;100830.25;;;-0.05;100.00
24825;BME280;12910;57.690;11.974;2023-02-22T02:11:22;100839.75;;;-0.14;100.00
24825;BME280;12910;57.690;11.974;2023-02-22T02:13:50;100834.25;;;-0.08;100.00
24825;BME280;12910;57.690;11.974;2023-02-22T02:16:16;100838.34;;;-0.10;100.00
24825;BME280;12910;57.690;11.974;2023-02-22T02:18:42;100832.03;;;-0.17;100.00
24825;BME280;12910;57.690;11.974;2023-02-22T02:22:06;100843.25;;;-0.12;100.00
24825;BME280;12910;57.690;11.974;2023-02-22T02:27:13;100845.78;;;-0.12;100.00
24825;BME280;12910;57.690;11.974;2023-02-22T02:36:10;100837.75;;;-0.20;100.00
24825;BME280;12910;57.690;11.974;2023-02-22T02:38:46;100843.44;;;-0.22;100.00
24825;BME280;12910;57.690;11.974;2023-02-22T02:41:29;100845.31;;;-0.20;100.00
24825;BME280;12910;57.690;11.974;2023-02-22T02:44:14;100828.72;;;-0.29;100.00
24825;BME280;12910;57.690;11.974;2023-02-22T02:46:55;100838.41;;;-0.22;100.00
24825;BME280;12910;57.690;11.974;2023-02-22T02:49:34;100822.63;;;-0.33;100.00
24825;BME280;12910;57.690;11.974;2023-02-22T02:52:02;100837.47;;;-0.24;100.00
24825;BME280;12910;57.690;11.974;2023-02-22T02:54:28;100820.88;;;-0.34;100.00
24825;BME280;12910;57.690;11.974;2023-02-22T02:56:56;100809.75;;;-0.38;100.00
24825;BME280;12910;57.690;11.974;2023-02-22T02:59:28;100824.66;;;-0.27;100.00
24825;BME280;12910;57.690;11.974;2023-02-22T03:07:48;100825.16;;;-0.33;100.00
24825;BME280;12910;57.690;11.974;2023-02-22T03:13:34;100844.41;;;-0.20;100.00
24825;BME280;12910;57.690;11.974;2023-02-22T03:21:45;100836.38;;;-0.28;100.00
24825;BME280;12910;57.690;11.974;2023-02-22T03:26:50;100825.22;;;-0.32;100.00
24825;BME280;12910;57.690;11.974;2023-02-22T03:29:19;100825.81;;;-0.22;100.00
24825;BME280;12910;57.690;11.974;2023-02-22T03:31:50;100828.81;;;-0.28;100.00
24825;BME280;12910;57.690;11.974;2023-02-22T03:34:27;100828.44;;;-0.34;100.00
24825;BME280;12910;57.690;11.974;2023-02-22T03:37:04;100833.00;;;-0.28;100.00
24825;BME280;12910;57.690;11.974;2023-02-22T03:39:34;100798.63;;;-0.41;100.00
24825;BME280;12910;57.690;11.974;2023-02-22T03:42:05;100817.03;;;-0.29;100.00
24825;BME280;12910;57.690;11.974;2023-02-22T03:44:34;100817.59;;;-0.33;100.00
24825;BME280;12910;57.690;11.974;2023-02-22T03:47:06;100813.41;;;-0.33;100.00
24825;BME280;12910;57.690;11.974;2023-02-22T03:49:36;100826.69;;;-0.22;100.00
24825;BME280;12910;57.690;11.974;2023-02-22T03:52:05;100815.28;;;-0.30;100.00
24825;BME280;12910;57.690;11.974;2023-02-22T03:54:31;100815.16;;;-0.32;100.00
24825;BME280;12910;57.690;11.974;2023-02-22T03:57:11;100815.38;;;-0.28;100.00
24825;BME280;12910;57.690;11.974;2023-02-22T03:59:38;100812.06;;;-0.27;100.00
24825;BME280;12910;57.690;11.974;2023-02-22T04:02:04;100813.81;;;-0.26;100.00
24825;BME280;12910;57.690;11.974;2023-02-22T04:04:29;100820.59;;;-0.25;100.00
24825;BME280;12910;57.690;11.974;2023-02-22T04:06:55;100819.22;;;-0.20;100.00
24825;BME280;12910;57.690;11.974;2023-02-22T04:09:20;100818.16;;;-0.24;100.00
24825;BME280;12910;57.690;11.974;2023-02-22T04:11:48;100818.84;;;-0.26;100.00
24825;BME280;12910;57.690;11.974;2023-02-22T04:14:13;100831.91;;;-0.19;100.00
24825;BME280;12910;57.690;11.974;2023-02-22T04:16:39;100835.41;;;-0.17;100.00
24825;BME280;12910;57.690;11.974;2023-02-22T04:19:04;100837.06;;;-0.17;100.00
24825;BME280;12910;57.690;11.974;2023-02-22T04:21:30;100836.94;;;-0.19;100.00
24825;BME280;12910;57.690;11.974;2023-02-22T04:23:57;100833.28;;;-0.24;100.00
24825;BME280;12910;57.690;11.974;2023-02-22T04:26:22;100836.09;;;-0.19;100.00
24825;BME280;12910;57.690;11.974;2023-02-22T04:28:48;100831.81;;;-0.20;100.00
24825;BME280;12910;57.690;11.974;2023-02-22T04:31:15;100824.75;;;-0.26;100.00
24825;BME280;12910;57.690;11.974;2023-02-22T04:33:41;100843.25;;;-0.12;100.00
24825;BME280;12910;57.690;11.974;2023-02-22T04:36:07;100830.50;;;-0.15;100.00
24825;BME280;12910;57.690;11.974;2023-02-22T04:38:34;100838.41;;;-0.09;100.00
24825;BME280;12910;57.690;11.974;2023-02-22T04:40:59;100836.47;;;-0.13;100.00
24825;BME280;12910;57.690;11.974;2023-02-22T04:43:24;100830.38;;;-0.17;100.00
24825;BME280;12910;57.690;11.974;2023-02-22T04:45:50;100840.56;;;-0.15;100.00
24825;BME280;12910;57.690;11.974;2023-02-22T04:48:15;100837.66;;;-0.08;100.00
24825;BME280;12910;57.690;11.974;2023-02-22T04:50:41;100828.63;;;-0.18;100.00
24825;BME280;12910;57.690;11.974;2023-02-22T04:53:06;100840.94;;;-0.09;100.00
24825;BME280;12910;57.690;11.974;2023-02-22T04:55:32;100842.09;;;-0.04;100.00
24825;BME280;12910;57.690;11.974;2023-02-22T04:57:58;100849.47;;;-0.07;100.00
24825;BME280;12910;57.690;11.974;2023-02-22T05:00:23;100832.13;;;-0.16;100.00
24825;BME280;12910;57.690;11.974;2023-02-22T05:02:49;100829.31;;;-0.20;100.00
24825;BME280;12910;57.690;11.974;2023-02-22T05:05:20;100838.41;;;-0.09;100.00
24825;BME280;12910;57.690;11.974;2023-02-22T05:07:46;100828.34;;;-0.09;100.00
24825;BME280;12910;57.690;11.974;2023-02-22T05:10:13;100836.28;;;-0.03;100.00
24825;BME280;12910;57.690;11.974;2023-02-22T05:12:38;100832.31;;;-0.12;100.00
24825;BME280;12910;57.690;11.974;2023-02-22T05:15:06;100833.47;;;-0.07;100.00
24825;BME280;12910;57.690;11.974;2023-02-22T05:17:32;100807.69;;;-0.17;100.00
24825;BME280;12910;57.690;11.974;2023-02-22T05:19:58;100824.16;;;-0.08;100.00
24825;BME280;12910;57.690;11.974;2023-02-22T05:22:24;100816.31;;;-0.13;100.00
24825;BME280;12910;57.690;11.974;2023-02-22T05:24:49;100825.06;;;-0.08;100.00
24825;BME280;12910;57.690;11.974;2023-02-22T05:27:18;100810.34;;;-0.15;100.00
24825;BME280;12910;57.690;11.974;2023-02-22T05:29:43;100829.13;;;-0.10;100.00
24825;BME280;12910;57.690;11.974;2023-02-22T05:32:09;100837.53;;;-0.09;100.00
24825;BME280;12910;57.690;11.974;2023-02-22T05:34:36;100834.25;;;-0.08;100.00
24825;BME280;12910;57.690;11.974;2023-02-22T05:37:01;100824.06;;;-0.10;100.00
24825;BME280;12910;57.690;11.974;2023-02-22T05:39:28;100821.56;;;-0.10;100.00
24825;BME280;12910;57.690;11.974;2023-02-22T05:41:53;100822.69;;;-0.05;100.00
24825;BME280;12910;57.690;11.974;2023-02-22T05:44:19;100811.09;;;-0.16;100.00
24825;BME280;12910;57.690;11.974;2023-02-22T05:46:44;100823.31;;;-0.09;100.00
24825;BME280;12910;57.690;11.974;2023-02-22T05:49:09;100834.72;;;-0.14;100.00
24825;BME280;12910;57.690;11.974;2023-02-22T05:51:35;100835.59;;;-0.13;100.00
24825;BME280;12910;57.690;11.974;2023-02-22T05:54:00;100836.75;;;-0.08;100.00
24825;BME280;12910;57.690;11.974;2023-02-22T05:56:28;100842.78;;;-0.06;100.00
24825;BME280;12910;57.690;11.974;2023-02-22T05:58:54;100853.75;;;-0.06;100.00
24825;BME280;12910;57.690;11.974;2023-02-22T06:01:20;100847.72;;;-0.08;100.00
24825;BME280;12910;57.690;11.974;2023-02-22T06:03:47;100845.09;;;-0.09;100.00
24825;BME280;12910;57.690;11.974;2023-02-22T06:06:13;100843.84;;;-0.16;100.00
24825;BME280;12910;57.690;11.974;2023-02-22T06:08:38;100849.75;;;-0.16;100.00
24825;BME280;12910;57.690;11.974;2023-02-22T06:11:04;100844.72;;;-0.16;100.00
24825;BME280;12910;57.690;11.974;2023-02-22T06:13:29;100816.53;;;-0.37;100.00
24825;BME280;12910;57.690;11.974;2023-02-22T06:15:55;100852.06;;;-0.19;100.00
24825;BME280;12910;57.690;11.974;2023-02-22T06:18:20;100855.38;;;-0.20;100.00
24825;BME280;12910;57.690;11.974;2023-02-22T06:20:46;100854.50;;;-0.20;100.00
24825;BME280;12910;57.690;11.974;2023-02-22T06:23:11;100872.44;;;-0.29;100.00
24825;BME280;12910;57.690;11.974;2023-02-22T06:25:36;100870.28;;;-0.23;100.00
24825;BME280;12910;57.690;11.974;2023-02-22T06:28:02;100854.81;;;-0.29;100.00
24825;BME280;12910;57.690;11.974;2023-02-22T06:30:28;100875.41;;;-0.21;100.00
24825;BME280;12910;57.690;11.974;2023-02-22T06:32:54;100874.44;;;-0.23;100.00
24825;BME280;12910;57.690;11.974;2023-02-22T06:35:20;100876.47;;;-0.18;100.00
24825;BME280;12910;57.690;11.974;2023-02-22T06:37:45;100877.75;;;-0.24;100.00
24825;BME280;12910;57.690;11.974;2023-02-22T06:40:12;100872.03;;;-0.22;100.00
24825;BME280;12910;57.690;11.974;2023-02-22T06:42:38;100881.44;;;-0.19;100.00
24825;BME280;12910;57.690;11.974;2023-02-22T06:45:04;100877.94;;;-0.21;100.00
24825;BME280;12910;57.690;11.974;2023-02-22T06:47:29;100873.09;;;-0.18;100.00
24825;BME280;12910;57.690;11.974;2023-02-22T06:49:56;100884.16;;;-0.16;100.00
24825;BME280;12910;57.690;11.974;2023-02-22T06:52:22;100886.47;;;-0.19;100.00
24825;BME280;12910;57.690;11.974;2023-02-22T06:54:48;100890.75;;;-0.18;100.00
24825;BME280;12910;57.690;11.974;2023-02-22T06:57:14;100854.69;;;-0.30;100.00
24825;BME280;12910;57.690;11.974;2023-02-22T06:59:40;100887.84;;;-0.11;100.00
24825;BME280;12910;57.690;11.974;2023-02-22T07:02:05;100884.34;;;-0.13;100.00
24825;BME280;12910;57.690;11.974;2023-02-22T07:04:31;100886.84;;;-0.13;100.00
24825;BME280;12910;57.690;11.974;2023-02-22T07:06:56;100879.28;;;-0.13;100.00
24825;BME280;12910;57.690;11.974;2023-02-22T07:09:21;100872.03;;;-0.22;100.00
24825;BME280;12910;57.690;11.974;2023-02-22T07:11:47;100878.16;;;-0.18;100.00
24825;BME280;12910;57.690;11.974;2023-02-22T07:14:12;100888.31;;;-0.03;100.00
24825;BME280;12910;57.690;11.974;2023-02-22T07:16:40;100887.84;;;0.03;100.00
24825;BME280;12910;57.690;11.974;2023-02-22T07:19:05;100889.47;;;0.02;100.00
24825;BME280;12910;57.690;11.974;2023-02-22T07:21:31;100879.31;;;0.01;100.00
24825;BME280;12910;57.690;11.974;2023-02-22T07:23:57;100876.50;;;-0.04;100.00
24825;BME280;12910;57.690;11.974;2023-02-22T07:26:24;100900.44;;;0.03;100.00
24825;BME280;12910;57.690;11.974;2023-02-22T07:28:50;100886.88;;;0.01;100.00
24825;BME280;12910;57.690;11.974;2023-02-22T07:31:16;100898.50;;;0.12;100.00
24825;BME280;12910;57.690;11.974;2023-02-22T07:33:42;100897.63;;;0.11;100.00
24825;BME280;12910;57.690;11.974;2023-02-22T07:36:08;100876.22;;;0.05;100.00
24825;BME280;12910;57.690;11.974;2023-02-22T07:38:34;100882.50;;;0.11;100.00
24825;BME280;12910;57.690;11.974;2023-02-22T07:40:59;100886.28;;;0.18;100.00
24825;BME280;12910;57.690;11.974;2023-02-22T07:43:27;100890.75;;;0.22;100.00
24825;BME280;12910;57.690;11.974;2023-02-22T07:45:55;100892.28;;;0.20;100.00
24825;BME280;12910;57.690;11.974;2023-02-22T07:48:23;100909.94;;;0.34;100.00
24825;BME280;12910;57.690;11.974;2023-02-22T07:50:49;100905.47;;;0.43;100.00
24825;BME280;12910;57.690;11.974;2023-02-22T07:53:20;100906.31;;;0.43;100.00
24825;BME280;12910;57.690;11.974;2023-02-22T07:55:46;100901.06;;;0.40;100.00
24825;BME280;12910;57.690;11.974;2023-02-22T07:58:17;100897.50;;;0.50;100.00
24825;BME280;12910;57.690;11.974;2023-02-22T08:00:43;100907.75;;;0.53;100.00
24825;BME280;12910;57.690;11.974;2023-02-22T08:03:10;100913.19;;;0.59;100.00
24825;BME280;12910;57.690;11.974;2023-02-22T08:05:39;100907.25;;;0.59;100.00
24825;BME280;12910;57.690;11.974;2023-02-22T08:08:05;100916.56;;;0.60;100.00
24825;BME280;12910;57.690;11.974;2023-02-22T08:10:31;100911.63;;;0.61;100.00
24825;BME280;12910;57.690;11.974;2023-02-22T08:12:58;100904.22;;;0.65;100.00
24825;BME280;12910;57.690;11.974;2023-02-22T08:15:27;100915.28;;;0.67;100.00
24825;BME280;12910;57.690;11.974;2023-02-22T08:17:54;100899.31;;;0.66;100.00
24825;BME280;12910;57.690;11.974;2023-02-22T08:20:21;100905.56;;;0.73;100.00
24825;BME280;12910;57.690;11.974;2023-02-22T08:22:46;100903.59;;;0.82;100.00
24825;BME280;12910;57.690;11.974;2023-02-22T08:25:14;100910.66;;;0.88;100.00
24825;BME280;12910;57.690;11.974;2023-02-22T08:27:40;100910.16;;;0.93;100.00
24825;BME280;12910;57.690;11.974;2023-02-22T08:30:07;100906.88;;;0.95;100.00
24825;BME280;12910;57.690;11.974;2023-02-22T08:32:33;100901.81;;;0.95;100.00
24825;BME280;12910;57.690;11.974;2023-02-22T08:35:00;100900.47;;;1.00;100.00
24825;BME280;12910;57.690;11.974;2023-02-22T08:37:26;100893.47;;;0.96;100.00
24825;BME280;12910;57.690;11.974;2023-02-22T08:39:52;100900.47;;;1.00;100.00
24825;BME280;12910;57.690;11.974;2023-02-22T08:42:17;100902.47;;;1.05;100.00
24825;BME280;12910;57.690;11.974;2023-02-22T08:44:43;100896.81;;;1.09;100.00
24825;BME280;12910;57.690;11.974;2023-02-22T08:47:08;100904.66;;;1.14;100.00
24825;BME280;12910;57.690;11.974;2023-02-22T08:49:34;100902.06;;;1.13;100.00
24825;BME280;12910;57.690;11.974;2023-02-22T08:52:00;100897.84;;;1.13;100.00
24825;BME280;12910;57.690;11.974;2023-02-22T08:54:25;100896.13;;;1.12;100.00
24825;BME280;12910;57.690;11.974;2023-02-22T08:56:50;100870.16;;;1.00;100.00
24825;BME280;12910;57.690;11.974;2023-02-22T08:59:17;100898.41;;;1.22;100.00
24825;BME280;12910;57.690;11.974;2023-02-22T09:01:45;100878.72;;;1.17;100.00
24825;BME280;12910;57.690;11.974;2023-02-22T09:04:10;100897.19;;;1.31;100.00
24825;BME280;12910;57.690;11.974;2023-02-22T09:06:39;100891.19;;;1.29;100.00
24825;BME280;12910;57.690;11.974;2023-02-22T09:09:05;100896.78;;;1.38;100.00
24825;BME280;12910;57.690;11.974;2023-02-22T09:11:30;100900.50;;;1.45;100.00
24825;BME280;12910;57.690;11.974;2023-02-22T09:13:56;100904.25;;;1.51;100.00
24825;BME280;12910;57.690;11.974;2023-02-22T09:16:21;100891.38;;;1.47;100.00
24825;BME280;12910;57.690;11.974;2023-02-22T09:18:46;100894.44;;;1.56;100.00
24825;BME280;12910;57.690;11.974;2023-02-22T09:21:12;100881.97;;;1.59;100.00
24825;BME280;12910;57.690;11.974;2023-02-22T09:23:37;100888.06;;;1.63;100.00
24825;BME280;12910;57.690;11.974;2023-02-22T09:26:03;100887.47;;;1.67;100.00
24825;BME280;12910;57.690;11.974;2023-02-22T09:28:28;100886.84;;;1.71;100.00
24825;BME280;12910;57.690;11.974;2023-02-22T09:30:54;100894.53;;;1.73;100.00
24825;BME280;12910;57.690;11.974;2023-02-22T09:33:20;100894.69;;;1.76;100.00
24825;BME280;12910;57.690;11.974;2023-02-22T09:35:48;100895.56;;;1.76;100.00
24825;BME280;12910;57.690;11.974;2023-02-22T09:38:22;100867.78;;;1.61;100.00
24825;BME280;12910;57.690;11.974;2023-02-22T09:40:51;100894.94;;;1.80;100.00
24825;BME280;12910;57.690;11.974;2023-02-22T09:43:56;100890.06;;;1.83;100.00
24825;BME280;12910;57.690;11.974;2023-02-22T09:46:38;100884.22;;;1.84;100.00
24825;BME280;12910;57.690;11.974;2023-02-22T09:51:42;100897.63;;;1.98;100.00
24825;BME280;12910;57.690;11.974;2023-02-22T09:54:29;100886.75;;;1.99;100.00
24825;BME280;12910;57.690;11.974;2023-02-22T09:57:02;100885.00;;;1.98;100.00
24825;BME280;12910;57.690;11.974;2023-02-22T09:59:32;100897.09;;;2.04;100.00
24825;BME280;12910;57.690;11.974;2023-02-22T10:02:04;100905.03;;;2.10;100.00
24825;BME280;12910;57.690;11.974;2023-02-22T10:04:45;100903.63;;;2.15;100.00
24825;BME280;12910;57.690;11.974;2023-02-22T10:07:17;100907.09;;;2.17;100.00
24825;BME280;12910;57.690;11.974;2023-02-22T10:09:47;100903.94;;;2.22;100.00
24825;BME280;12910;57.690;11.974;2023-02-22T10:12:29;100906.03;;;2.29;100.00
24825;BME280;12910;57.690;11.974;2023-02-22T10:15:25;100902.88;;;2.33;100.00
24825;BME280;12910;57.690;11.974;2023-02-22T10:20:56;100908.25;;;2.39;100.00
24825;BME280;12910;57.690;11.974;2023-02-22T10:23:35;100894.84;;;2.40;100.00
24825;BME280;12910;57.690;11.974;2023-02-22T10:26:27;100894.84;;;2.40;100.00
24825;BME280;12910;57.690;11.974;2023-02-22T10:29:13;100881.09;;;2.35;100.00
24825;BME280;12910;57.690;11.974;2023-02-22T10:31:44;100874.28;;;2.34;100.00
24825;BME280;12910;57.690;11.974;2023-02-22T10:34:13;100878.88;;;2.41;100.00
24825;BME280;12910;57.690;11.974;2023-02-22T10:36:41;100872.47;;;2.48;100.00
24825;BME280;12910;57.690;11.974;2023-02-22T10:39:32;100881.34;;;2.56;100.00
24825;BME280;12910;57.690;11.974;2023-02-22T10:42:02;100886.47;;;2.58;100.00
24825;BME280;12910;57.690;11.974;2023-02-22T10:44:37;100895.25;;;2.64;100.00
24825;BME280;12910;57.690;11.974;2023-02-22T10:47:06;100878.41;;;2.65;100.00
24825;BME280;12910;57.690;11.974;2023-02-22T10:49:40;100889.97;;;2.76;100.00
24825;BME280;12910;57.690;11.974;2023-02-22T10:52:18;100889.97;;;2.76;100.00
24825;BME280;12910;57.690;11.974;2023-02-22T10:54:47;100879.84;;;2.76;100.00
24825;BME280;12910;57.690;11.974;2023-02-22T10:57:20;100881.81;;;2.82;100.00
24825;BME280;12910;57.690;11.974;2023-02-22T10:59:47;100856.09;;;2.74;100.00
24825;BME280;12910;57.690;11.974;2023-02-22T11:02:22;100876.75;;;2.82;100.00
24825;BME280;12910;57.690;11.974;2023-02-22T11:04:50;100870.19;;;2.86;100.00
24825;BME280;12910;57.690;11.974;2023-02-22T11:07:27;100874.81;;;2.93;100.00
24825;BME280;12910;57.690;11.974;2023-02-22T11:12:37;100858.34;;;3.01;100.00
24825;BME280;12910;57.690;11.974;2023-02-22T11:17:42;100866.53;;;3.14;100.00
24825;BME280;12910;57.690;11.974;2023-02-22T11:20:19;100860.69;;;3.15;100.00
24825;BME280;12910;57.690;11.974;2023-02-22T11:22:54;100853.25;;;3.18;100.00
24825;BME280;12910;57.690;11.974;2023-02-22T11:25:26;100854.81;;;3.16;100.00
24825;BME280;12910;57.690;11.974;2023-02-22T11:27:53;100861.13;;;3.24;100.00
24825;BME280;12910;57.690;11.974;2023-02-22T11:35:35;100869.06;;;3.30;100.00
24825;BME280;12910;57.690;11.974;2023-02-22T11:40:34;100854.88;;;3.34;100.00
24825;BME280;12910;57.690;11.974;2023-02-22T11:43:08;100862.38;;;3.32;100.00
24825;BME280;12910;57.690;11.974;2023-02-22T11:45:37;100853.31;;;3.36;100.00
24825;BME280;12910;57.690;11.974;2023-02-22T11:48:05;100854.31;;;3.39;100.00
24825;BME280;12910;57.690;11.974;2023-02-22T11:56:43;100860.28;;;3.58;100.00
24825;BME280;12910;57.690;11.974;2023-02-22T11:59:12;100862.09;;;3.61;100.00
24825;BME280;12910;57.690;11.974;2023-02-22T12:07:23;100853.19;;;3.69;100.00
24825;BME280;12910;57.690;11.974;2023-02-22T12:10:18;100857.63;;;3.73;100.00
24825;BME280;12910;57.690;11.974;2023-02-22T12:15:33;100837.09;;;3.86;100.00
24825;BME280;12910;57.690;11.974;2023-02-22T12:20:59;100841.00;;;3.98;100.00
24825;BME280;12910;57.690;11.974;2023-02-22T12:26:29;100837.09;;;4.04;100.00
24825;BME280;12910;57.690;11.974;2023-02-22T12:29:10;100834.50;;;4.03;100.00
24825;BME280;12910;57.690;11.974;2023-02-22T12:31:42;100837.09;;;4.04;100.00
24825;BME280;12910;57.690;11.974;2023-02-22T12:42:03;100824.19;;;4.18;100.00
24825;BME280;12910;57.690;11.974;2023-02-22T12:44:34;100827.53;;;4.17;100.00
24825;BME280;12910;57.690;11.974;2023-02-22T12:47:01;100813.75;;;4.12;100.00
24825;BME280;12910;57.690;11.974;2023-02-22T12:49:43;100816.16;;;4.09;100.00
24825;BME280;12910;57.690;11.974;2023-02-22T12:55:05;100813.53;;;4.07;100.00
24825;BME280;12910;57.690;11.974;2023-02-22T12:57:43;100817.06;;;4.11;100.00
24825;BME280;12910;57.690;11.974;2023-02-22T13:03:12;100822.44;;;4.17;100.00
24825;BME280;12910;57.690;11.974;2023-02-22T13:05:49;100822.28;;;4.14;100.00
24825;BME280;12910;57.690;11.974;2023-02-22T13:08:31;100803.75;;;4.15;100.00
24825;BME280;12910;57.690;11.974;2023-02-22T13:16:52;100816.00;;;4.05;100.00
24825;BME280;12910;57.690;11.974;2023-02-22T13:19:36;100817.53;;;4.02;100.00
24825;BME280;12910;57.690;11.974;2023-02-22T13:22:15;100809.19;;;4.04;100.00
24825;BME280;12910;57.690;11.974;2023-02-22T13:27:22;100810.56;;;3.98;100.00
24825;BME280;12910;57.690;11.974;2023-02-22T13:29:58;100806.38;;;3.98;100.00
24825;BME280;12910;57.690;11.974;2023-02-22T13:35:18;100808.97;;;4.00;100.00
24825;BME280;12910;57.690;11.974;2023-02-22T13:38:25;100807.41;;;4.02;100.00
24825;BME280;12910;57.690;11.974;2023-02-22T13:41:16;100790.97;;;3.94;100.00
24825;BME280;12910;57.690;11.974;2023-02-22T13:44:45;100801.16;;;3.95;100.00
24825;BME280;12910;57.690;11.974;2023-02-22T13:47:07;100805.44;;;3.96;100.00
24825;BME280;12910;57.690;11.974;2023-02-22T13:49:50;100797.84;;;3.96;100.00
24825;BME280;12910;57.690;11.974;2023-02-22T13:52:21;100796.38;;;4.01;100.00
24825;BME280;12910;57.690;11.974;2023-02-22T13:55:00;100790.56;;;4.04;100.00
24825;BME280;12910;57.690;11.974;2023-02-22T13:57:32;100769.94;;;3.96;100.00
24825;BME280;12910;57.690;11.974;2023-02-22T14:03:05;100796.78;;;4.11;100.00
24825;BME280;12910;57.690;11.974;2023-02-22T14:11:03;100782.16;;;4.05;100.00
24825;BME280;12910;57.690;11.974;2023-02-22T14:18:47;100773.28;;;3.95;100.00
24825;BME280;12910;57.690;11.974;2023-02-22T14:21:17;100774.22;;;3.97;100.00
24825;BME280;12910;57.690;11.974;2023-02-22T14:23:50;100770.88;;;3.98;100.00
24825;BME280;12910;57.690;11.974;2023-02-22T14:26:28;100766.25;;;3.89;100.00
24825;BME280;12910;57.690;11.974;2023-02-22T14:28:57;100776.75;;;3.97;100.00
24825;BME280;12910;57.690;11.974;2023-02-22T14:34:13;100770.00;;;3.98;100.00
24825;BME280;12910;57.690;11.974;2023-02-22T14:36:43;100769.16;;;3.97;100.00